Santa Fe, New Mexico
Current Conditions -  °F | °C
As of 8:53 PM on Saturday 22 Nov 2014 (Local Time) from KSAF Reporting Station
Few Clouds Few Clouds  
Wind Chill: 31°   Ceiling: Unl
Heat Index: 35°   Visibility: 10mi
Dew Point: 13°   Wind: 5mph
Humidity: 40%   Direction: 360°N
Pressure: 29.88"   Gusts: NA
Location:  35.69°N, 105.93°W
Report Text: KSAF 230353Z AUTO 36004KT 10SM FEW100 02/M11 A2988 RMK AO2 SLP096 T00171106
Loading
Personal Weather Stations






























Interactive Weather Map New forecast layout! Learn more

10-Day Weather Forecast

Advertisements
Track Severe Weather on mobile